CYLU

Kangiqsualujjuaq (Georges River) Airport

Kangiqsualujjuaq, Quebec, Canada
METAR CYLU 112200Z 16008G20KT 110V230 2SM -SN BLSN SCT012 OVC033 M17/M20 A3002 RMK ST3SC5 LAST STFD OBS/NEXT 121300UTC SNW CVR/MUCH LOOSE SLP175
Observed Flight Rules
Dec-11 @ 22:00 UTC (12 hours ago) Instrument Flight Rules
Wind Visibility Clouds Conditions
160° at 8 knots
 Gusting to 20 knots
2 miles
  • Scattered at 1,200' AGL
  • Overcast at 3,300' AGL
  • Light Snow
  • Blowing
  • Snow
Temperatures Readings
Current -17°C / 1°F
Dewpoint -20°C / -4°F
Humidity 78%
Altimeter 30.02" Hg
Pressure 1017.5 hPa
Elevation 60
METAR CYLU 112200Z 16008G20KT 110V230 2SM -SN BLSN SCT012 OVC033 M17/M20 A3002 RMK ST3SC5 LAST STFD OBS/NEXT 121300UTC SNW CVR/MUCH LOOSE SLP175
Observed Flight Rules
Dec-11 @ 22:00 UTC
(12 hours ago)
IFR
Wind Visibility
160° at 8 knots
 Gusting to 20 knots
2 miles
Clouds
  • Scattered at 1,200' AGL
  • Overcast at 3,300' AGL
Conditions
  • Light Snow
  • Blowing
  • Snow
Temperature Dewpoint
-17°C / 1°F -20°C / -4°F
Humidity Altimeter Pressure
78% 30.02" Hg 1017.5 hPa